createdAt,value
2019-05-12T00:00:48.412Z,4.53
2019-05-12T00:03:18.924Z,4.63
2019-05-12T00:05:48.753Z,4.30
2019-05-12T00:08:18.971Z,4.83
2019-05-12T00:10:48.921Z,5.47
2019-05-12T00:13:19.128Z,4.17
2019-05-12T00:15:49.113Z,5.73
2019-05-12T00:18:18.929Z,4.33
2019-05-12T00:20:48.974Z,4.73
2019-05-12T00:23:26.654Z,4.17
2019-05-12T00:25:50.181Z,4.70
2019-05-12T00:28:19.939Z,4.30
2019-05-12T00:30:50.646Z,4.83
2019-05-12T00:33:20.382Z,4.73
2019-05-12T00:35:50.106Z,5.03
2019-05-12T00:38:20.175Z,4.97
2019-05-12T00:40:50.062Z,4.10
2019-05-12T00:43:19.901Z,3.70
2019-05-12T00:45:49.590Z,3.87
2019-05-12T00:48:19.394Z,4.17
2019-05-12T00:50:49.148Z,4.17
2019-05-12T00:53:19.101Z,3.23
2019-05-12T00:55:48.912Z,2.80
2019-05-12T00:58:19.577Z,3.33
2019-05-12T01:00:49.593Z,3.23
2019-05-12T01:03:19.322Z,2.70
2019-05-12T01:05:49.168Z,2.53
2019-05-12T01:08:18.931Z,2.23
2019-05-12T01:10:48.739Z,2.30
2019-05-12T01:13:18.864Z,2.70
2019-05-12T01:15:48.684Z,2.30
2019-05-12T01:18:18.459Z,2.77
2019-05-12T01:20:48.270Z,2.33
2019-05-12T01:23:19.289Z,2.27
2019-05-12T01:25:50.853Z,2.93
2019-05-12T01:28:20.833Z,2.30
2019-05-12T01:30:50.726Z,1.87
2019-05-12T01:33:20.861Z,2.40
2019-05-12T01:35:50.736Z,2.30
2019-05-12T01:38:20.897Z,2.03
2019-05-12T01:40:50.896Z,2.37
2019-05-12T01:43:21.231Z,2.20
2019-05-12T01:45:51.270Z,2.50
2019-05-12T01:48:21.054Z,2.50
2019-05-12T01:50:51.150Z,2.23
2019-05-12T01:53:21.782Z,2.20
2019-05-12T01:55:52.127Z,2.53
2019-05-12T01:58:22.262Z,2.27
2019-05-12T02:00:51.964Z,2.40
2019-05-12T02:03:21.735Z,2.40
2019-05-12T02:05:53.532Z,2.20
2019-05-12T02:08:29.485Z,2.57
2019-05-12T02:11:18.338Z,2.13
2019-05-12T02:13:48.770Z,2.80
2019-05-12T02:16:19.116Z,2.07
2019-05-12T02:18:49.146Z,2.40
2019-05-12T02:21:19.198Z,2.50
2019-05-12T02:23:49.368Z,2.10
2019-05-12T02:26:19.148Z,2.10
2019-05-12T02:28:49.220Z,2.40
2019-05-12T02:31:43.318Z,2.50
2019-05-12T02:34:15.635Z,2.60
2019-05-12T02:36:45.038Z,2.23
2019-05-12T02:39:15.274Z,2.53
2019-05-12T02:41:45.175Z,2.17
2019-05-12T02:44:15.230Z,2.37
2019-05-12T02:46:45.530Z,2.93
2019-05-12T02:49:15.892Z,2.43
2019-05-12T02:51:45.763Z,3.03
2019-05-12T02:54:16.871Z,2.70
2019-05-12T02:56:47.789Z,2.90
2019-05-12T02:59:19.512Z,2.33
2019-05-12T03:01:49.657Z,2.33
2019-05-12T03:04:19.399Z,3.00
2019-05-12T03:06:49.215Z,1.97
2019-05-12T03:09:19.038Z,2.93
2019-05-12T03:11:50.215Z,2.50
2019-05-12T03:14:19.900Z,2.63
2019-05-12T03:16:49.739Z,2.33
2019-05-12T03:19:19.505Z,2.57
2019-05-12T03:21:49.274Z,2.87
2019-05-12T03:24:19.058Z,2.20
2019-05-12T03:26:48.832Z,2.60
2019-05-12T03:29:18.624Z,2.30
2019-05-12T03:31:49.435Z,2.67
2019-05-12T03:34:20.742Z,2.93
2019-05-12T03:36:52.356Z,2.30
2019-05-12T03:39:25.091Z,2.27
2019-05-12T03:41:54.628Z,2.57
2019-05-12T03:44:25.313Z,2.70
2019-05-12T03:46:55.302Z,2.33
2019-05-12T03:49:25.419Z,2.13
2019-05-12T03:51:55.206Z,2.33
2019-05-12T03:54:24.941Z,2.17
2019-05-12T03:56:55.756Z,2.20
2019-05-12T03:59:25.769Z,2.10
2019-05-12T04:01:55.507Z,2.63
2019-05-12T04:04:25.662Z,2.43
2019-05-12T04:06:55.537Z,2.50
2019-05-12T04:09:25.283Z,2.90
2019-05-12T04:11:55.437Z,2.73
2019-05-12T04:14:25.442Z,2.20
2019-05-12T04:16:55.396Z,2.23
2019-05-12T04:19:25.194Z,2.30
2019-05-12T04:21:54.949Z,2.40
2019-05-12T04:24:25.125Z,2.17
2019-05-12T04:26:55.332Z,2.30
2019-05-12T04:29:25.264Z,2.70
2019-05-12T04:31:54.993Z,2.43
2019-05-12T04:34:25.231Z,2.77
2019-05-12T04:36:55.665Z,2.63
2019-05-12T04:39:25.569Z,2.33
2019-05-12T04:41:55.441Z,2.43
2019-05-12T04:44:25.425Z,2.37
2019-05-12T04:46:55.590Z,2.50
2019-05-12T04:49:25.526Z,2.30
2019-05-12T04:51:55.352Z,2.50
2019-05-12T04:54:25.051Z,2.73
2019-05-12T04:56:55.248Z,2.50
2019-05-12T04:59:25.565Z,2.97
2019-05-12T05:01:55.437Z,2.30
2019-05-12T05:04:25.290Z,2.53
2019-05-12T05:06:55.247Z,2.63
2019-05-12T05:09:25.077Z,2.47
2019-05-12T05:11:54.865Z,2.77
2019-05-12T05:14:24.952Z,2.70
2019-05-12T05:16:54.933Z,2.80
2019-05-12T05:19:25.142Z,2.50
2019-05-12T05:21:54.936Z,2.67
2019-05-12T05:24:24.705Z,2.47
2019-05-12T05:26:54.453Z,2.67
2019-05-12T05:29:24.159Z,2.93
2019-05-12T05:31:53.969Z,2.37
2019-05-12T05:34:23.774Z,2.83
2019-05-12T05:36:57.230Z,3.17
2019-05-12T05:39:25.126Z,2.57
2019-05-12T05:41:54.904Z,2.40
2019-05-12T05:44:29.164Z,3.20
2019-05-12T05:46:56.798Z,2.20
2019-05-12T05:49:26.677Z,2.80
2019-05-12T05:51:57.598Z,2.87
2019-05-12T05:54:31.436Z,2.77
2019-05-12T05:57:02.785Z,2.73
2019-05-12T05:59:31.625Z,3.20
2019-05-12T06:02:01.809Z,2.67
2019-05-12T06:04:34.211Z,3.00
2019-05-12T06:07:04.278Z,2.30
2019-05-12T06:09:34.044Z,2.80
2019-05-12T06:12:08.168Z,3.07
2019-05-12T06:14:35.729Z,2.97
2019-05-12T06:17:05.819Z,2.37
2019-05-12T06:19:35.573Z,3.53
2019-05-12T06:22:09.140Z,2.90
2019-05-12T06:24:36.821Z,3.47
2019-05-12T06:27:15.164Z,2.83
2019-05-12T06:29:38.392Z,3.60
2019-05-12T06:32:10.744Z,2.80
2019-05-12T06:34:40.049Z,3.60
2019-05-12T06:37:12.298Z,3.13
2019-05-12T06:39:43.557Z,3.13
2019-05-12T06:42:16.795Z,4.17
2019-05-12T06:44:48.922Z,3.47
2019-05-12T06:47:16.402Z,3.63
2019-05-12T06:49:48.861Z,3.47
2019-05-12T06:52:17.653Z,3.20
2019-05-12T06:54:51.149Z,3.40
2019-05-12T06:57:25.183Z,2.87
2019-05-12T06:59:52.499Z,3.20
2019-05-12T07:02:24.472Z,3.30
2019-05-12T07:04:59.422Z,3.10
2019-05-12T07:07:27.712Z,2.90
2019-05-12T07:10:07.988Z,3.40
2019-05-12T07:12:36.575Z,3.37
2019-05-12T07:15:00.514Z,3.77
2019-05-12T07:17:58.485Z,2.90
2019-05-12T07:20:29.230Z,3.33
2019-05-12T07:22:59.794Z,3.00
2019-05-12T07:25:31.762Z,3.63
2019-05-12T07:28:06.706Z,3.37
2019-05-12T07:30:35.248Z,3.13
2019-05-12T07:33:04.919Z,3.40
2019-05-12T07:35:35.042Z,3.00
2019-05-12T07:38:05.175Z,3.10
2019-05-12T07:40:37.950Z,3.20
2019-05-12T07:43:09.990Z,3.30
2019-05-12T07:45:39.271Z,3.33
2019-05-12T07:48:10.428Z,2.97
2019-05-12T07:50:40.711Z,2.53
2019-05-12T07:53:10.594Z,3.23
2019-05-12T07:55:45.382Z,3.60
2019-05-12T07:58:15.540Z,3.20
2019-05-12T08:00:44.645Z,3.03
2019-05-12T08:03:20.679Z,2.97
2019-05-12T08:05:45.819Z,3.60
2019-05-12T08:08:15.601Z,2.87
2019-05-12T08:10:45.354Z,3.17
2019-05-12T08:13:18.477Z,2.77
2019-05-12T08:15:50.174Z,3.00
2019-05-12T08:18:19.545Z,2.87
2019-05-12T08:20:49.708Z,3.50
2019-05-12T08:23:19.528Z,2.97
2019-05-12T08:25:49.457Z,2.97
2019-05-12T08:28:24.474Z,2.67
2019-05-12T08:30:52.712Z,3.37
2019-05-12T08:33:23.934Z,3.40
2019-05-12T08:35:55.340Z,2.57
2019-05-12T08:38:26.587Z,2.63
2019-05-12T08:40:56.285Z,2.20
2019-05-12T08:43:26.176Z,2.80
2019-05-12T08:46:00.338Z,2.73
2019-05-12T08:48:27.934Z,2.20
2019-05-12T08:50:57.790Z,2.30
2019-05-12T08:53:27.701Z,2.33
2019-05-12T08:55:57.662Z,2.30
2019-05-12T08:58:33.571Z,2.03
2019-05-12T09:00:59.202Z,2.17
2019-05-12T09:03:30.425Z,2.00
2019-05-12T09:06:00.434Z,2.00
2019-05-12T09:08:37.896Z,2.27
2019-05-12T09:11:03.559Z,2.10
2019-05-12T09:13:33.937Z,2.30
2019-05-12T09:16:04.856Z,2.50
2019-05-12T09:18:39.113Z,2.00
2019-05-12T09:21:06.288Z,1.80
2019-05-12T09:23:41.113Z,1.70
2019-05-12T09:26:07.635Z,1.70
2019-05-12T09:28:47.460Z,2.00
2019-05-12T09:31:08.799Z,1.60
2019-05-12T09:33:38.621Z,1.70
2019-05-12T09:36:21.514Z,1.50
2019-05-12T09:38:55.873Z,1.50
2019-05-12T09:41:24.042Z,1.30
2019-05-12T09:43:53.923Z,1.40
2019-05-12T09:46:28.302Z,1.60
2019-05-12T09:48:55.609Z,1.30
2019-05-12T09:51:25.407Z,1.47
2019-05-12T09:53:55.632Z,2.23
2019-05-12T09:56:25.652Z,1.60
2019-05-12T09:59:01.609Z,1.50
2019-05-12T10:01:29.395Z,1.60
2019-05-12T10:03:59.083Z,1.70
2019-05-12T10:06:28.930Z,1.37
2019-05-12T10:08:58.842Z,1.40
2019-05-12T10:11:28.601Z,1.67
2019-05-12T10:14:00.410Z,1.20
2019-05-12T10:16:29.743Z,1.47
2019-05-12T10:18:59.466Z,1.50
2019-05-12T10:21:29.321Z,1.40
2019-05-12T10:24:01.831Z,1.73
2019-05-12T10:26:30.540Z,1.60
2019-05-12T10:29:14.226Z,1.67
2019-05-12T10:31:35.803Z,1.90
2019-05-12T10:34:24.070Z,1.67
2019-05-12T10:36:54.500Z,1.27
2019-05-12T10:39:24.706Z,1.30
2019-05-12T10:41:55.593Z,1.40
2019-05-12T10:44:30.207Z,1.80
2019-05-12T10:46:59.239Z,1.70
2019-05-12T10:49:28.918Z,1.37
2019-05-12T10:51:58.631Z,1.40
2019-05-12T10:54:28.385Z,1.50
2019-05-12T10:56:58.131Z,1.53
2019-05-12T10:59:33.225Z,1.63
2019-05-12T11:01:59.657Z,1.80
2019-05-12T11:04:36.848Z,1.50
2019-05-12T11:07:01.248Z,1.73
2019-05-12T11:09:33.874Z,1.27
2019-05-12T11:12:03.509Z,1.50
2019-05-12T11:14:34.240Z,1.30
2019-05-12T11:17:07.929Z,1.50
2019-05-12T11:19:40.858Z,2.07
2019-05-12T11:22:10.029Z,3.70
2019-05-12T11:24:39.773Z,1.80
2019-05-12T11:27:09.559Z,2.97
2019-05-12T11:29:46.317Z,1.70
2019-05-12T11:32:10.920Z,1.47
2019-05-12T11:34:40.709Z,1.40
2019-05-12T11:37:10.591Z,1.13
2019-05-12T11:39:45.320Z,1.40
2019-05-12T11:42:13.652Z,1.47
2019-05-12T11:44:44.326Z,1.50
2019-05-12T11:47:23.897Z,1.60
2019-05-12T11:49:48.560Z,1.47
2019-05-12T11:52:19.517Z,1.40
2019-05-12T11:54:53.609Z,1.47
2019-05-12T11:57:28.285Z,1.57
2019-05-12T12:00:01.577Z,1.27
2019-05-12T12:02:30.281Z,1.80
2019-05-12T12:04:57.549Z,1.87
2019-05-12T12:07:27.492Z,1.60
2019-05-12T12:09:59.411Z,1.60
2019-05-12T12:12:28.864Z,1.70
2019-05-12T12:14:58.654Z,1.40
2019-05-12T12:17:31.010Z,1.70
2019-05-12T12:19:59.854Z,1.90
2019-05-12T12:22:31.277Z,1.87
2019-05-12T12:25:10.102Z,1.70
2019-05-12T12:27:33.662Z,1.30
2019-05-12T12:30:16.032Z,1.30
2019-05-12T12:32:34.973Z,1.43
2019-05-12T12:35:08.926Z,1.30
2019-05-12T12:37:36.353Z,1.80
2019-05-12T12:40:06.208Z,1.63
2019-05-12T12:42:43.694Z,1.67
2019-05-12T12:45:30.468Z,1.23
2019-05-12T12:47:56.849Z,1.40
2019-05-12T12:50:30.539Z,1.30
2019-05-12T12:52:58.169Z,1.43
2019-05-12T12:55:27.981Z,1.10
2019-05-12T12:57:57.693Z,1.50
2019-05-12T13:00:32.003Z,1.30
2019-05-12T13:02:58.981Z,1.83
2019-05-12T13:05:28.943Z,2.07
2019-05-12T13:07:58.772Z,1.70
2019-05-12T13:10:28.547Z,1.33
2019-05-12T13:13:01.042Z,1.30
2019-05-12T13:15:30.070Z,1.33
2019-05-12T13:18:02.752Z,1.37
2019-05-12T13:20:34.398Z,1.37
2019-05-12T13:23:04.290Z,1.30
2019-05-12T13:25:38.799Z,1.10
2019-05-12T13:28:10.334Z,1.97
2019-05-12T13:30:46.199Z,1.90
2019-05-12T13:33:13.400Z,1.57
2019-05-12T13:35:40.049Z,1.67
2019-05-12T13:38:09.785Z,2.13
2019-05-12T13:40:39.845Z,2.10
2019-05-12T13:43:15.551Z,1.37
2019-05-12T13:45:41.242Z,1.70
2019-05-12T13:48:17.876Z,2.17
2019-05-12T13:50:43.318Z,1.20
2019-05-12T13:53:13.920Z,1.47
2019-05-12T13:55:47.445Z,1.40
2019-05-12T13:58:15.631Z,1.00
2019-05-12T14:00:50.781Z,0.70
2019-05-12T14:03:16.888Z,1.20
2019-05-12T14:05:50.738Z,1.00
2019-05-12T14:08:18.246Z,1.33
2019-05-12T14:10:53.810Z,1.00
2019-05-12T14:13:20.039Z,1.30
2019-05-12T14:15:49.832Z,1.20
2019-05-12T14:18:20.820Z,1.30
2019-05-12T14:20:55.236Z,1.77
2019-05-12T14:23:23.983Z,1.30
2019-05-12T14:25:54.372Z,1.17
2019-05-12T14:28:24.269Z,1.80
2019-05-12T14:30:54.550Z,1.37
2019-05-12T14:33:24.834Z,1.50
2019-05-12T14:35:55.086Z,2.10
2019-05-12T14:38:29.577Z,1.77
2019-05-12T14:41:01.225Z,1.13
2019-05-12T14:43:28.031Z,1.47
2019-05-12T14:46:00.320Z,0.97
2019-05-12T14:48:29.617Z,1.27
2019-05-12T14:50:59.358Z,1.20
2019-05-12T14:53:33.037Z,1.30
2019-05-12T14:56:00.790Z,0.97
2019-05-12T14:58:33.790Z,1.27
2019-05-12T15:01:04.044Z,1.53
2019-05-12T15:03:34.384Z,1.40
2019-05-12T15:06:07.626Z,1.30
2019-05-12T15:08:40.210Z,1.13
2019-05-12T15:11:08.289Z,1.10
2019-05-12T15:13:38.074Z,0.77
2019-05-12T15:16:08.091Z,1.40
2019-05-12T15:18:39.568Z,1.33
2019-05-12T15:21:10.035Z,1.67
2019-05-12T15:23:39.955Z,1.40
2019-05-12T15:26:15.837Z,1.30
2019-05-12T15:28:43.403Z,1.50
2019-05-12T15:31:14.339Z,1.10
2019-05-12T15:33:44.244Z,1.37
2019-05-12T15:36:13.959Z,1.47
2019-05-12T15:38:43.993Z,1.27
2019-05-12T15:41:16.872Z,1.13
2019-05-12T15:43:48.933Z,1.43
2019-05-12T15:46:16.853Z,1.50
2019-05-12T15:48:46.689Z,1.40
2019-05-12T15:51:16.370Z,1.50
2019-05-12T15:53:46.146Z,1.57
2019-05-12T15:56:22.804Z,1.70
2019-05-12T15:58:47.331Z,1.73
2019-05-12T16:01:17.409Z,1.73
2019-05-12T16:03:47.261Z,1.33
2019-05-12T16:06:17.185Z,1.70
2019-05-12T16:08:47.085Z,3.03
2019-05-12T16:11:16.897Z,1.90
2019-05-12T16:13:53.883Z,1.67
2019-05-12T16:16:24.589Z,1.67
2019-05-12T16:18:54.064Z,1.90
2019-05-12T16:21:23.952Z,1.60
2019-05-12T16:23:56.724Z,1.60
2019-05-12T16:26:25.250Z,1.50
2019-05-12T16:29:02.594Z,1.70
2019-05-12T16:31:27.730Z,1.47
2019-05-12T16:34:01.123Z,1.30
2019-05-12T16:36:29.478Z,1.53
2019-05-12T16:39:07.778Z,1.47
2019-05-12T16:41:37.709Z,1.37
2019-05-12T16:44:15.921Z,1.50
2019-05-12T16:46:38.877Z,2.03
2019-05-12T16:49:08.617Z,1.30
2019-05-12T16:51:38.296Z,1.70
2019-05-12T16:54:08.137Z,2.00
2019-05-12T16:56:37.865Z,2.33
2019-05-12T16:59:15.636Z,2.60
2019-05-12T17:01:40.950Z,2.37
2019-05-12T17:04:10.779Z,1.53
2019-05-12T17:06:43.135Z,1.67
2019-05-12T17:09:13.504Z,1.77
2019-05-12T17:11:52.373Z,1.67
2019-05-12T17:14:14.874Z,1.47
2019-05-12T17:16:46.695Z,1.23
2019-05-12T17:19:15.978Z,1.60
2019-05-12T17:21:49.456Z,1.37
2019-05-12T17:24:17.160Z,1.60
2019-05-12T17:26:46.929Z,1.50
2019-05-12T17:29:16.719Z,1.57
2019-05-12T17:31:46.481Z,1.63
2019-05-12T17:34:16.181Z,1.20
2019-05-12T17:36:50.172Z,2.50
2019-05-12T17:39:17.450Z,1.83
2019-05-12T17:41:47.245Z,3.33
2019-05-12T17:44:16.956Z,2.20
2019-05-12T17:46:46.668Z,1.90
2019-05-12T17:49:25.450Z,1.47
2019-05-12T17:51:47.929Z,0.83
2019-05-12T17:54:21.667Z,1.40
2019-05-12T17:56:49.036Z,1.33
2019-05-12T17:59:27.245Z,1.07
2019-05-12T18:01:50.409Z,1.30
2019-05-12T18:04:25.300Z,1.47
2019-05-12T18:06:53.529Z,1.63
2019-05-12T18:09:23.625Z,1.20
2019-05-12T18:11:56.202Z,1.30
2019-05-12T18:14:27.769Z,1.40
2019-05-12T18:17:02.748Z,1.70
2019-05-12T18:19:27.934Z,1.27
2019-05-12T18:22:03.093Z,1.50
2019-05-12T18:24:29.270Z,1.20
2019-05-12T18:27:04.496Z,1.67
2019-05-12T18:29:44.110Z,1.63
2019-05-12T18:32:14.126Z,1.33
2019-05-12T18:34:53.777Z,1.63
2019-05-12T18:37:24.096Z,1.70
2019-05-12T18:39:54.112Z,1.20
2019-05-12T18:42:24.608Z,1.63
2019-05-12T18:44:54.744Z,1.97
2019-05-12T18:47:31.796Z,1.63
2019-05-12T18:49:57.613Z,1.60
2019-05-12T18:52:29.172Z,1.30
2019-05-12T18:54:58.817Z,1.83
2019-05-12T18:57:28.958Z,1.17
2019-05-12T19:00:03.826Z,1.10
2019-05-12T19:02:32.978Z,1.00
2019-05-12T19:05:04.463Z,1.10
2019-05-12T19:07:39.594Z,0.97
2019-05-12T19:10:07.090Z,1.20
2019-05-12T19:12:37.208Z,1.70
2019-05-12T19:15:10.293Z,1.50
2019-05-12T19:17:39.340Z,1.33
2019-05-12T19:20:09.265Z,1.57
2019-05-12T19:22:48.207Z,1.57
2019-05-12T19:25:14.636Z,1.83
2019-05-12T19:27:46.329Z,1.60
2019-05-12T19:30:19.295Z,1.60
2019-05-12T19:32:47.501Z,1.80
2019-05-12T19:35:20.353Z,1.67
2019-05-12T19:37:48.594Z,1.10
2019-05-12T19:40:18.290Z,1.50
2019-05-12T19:42:52.730Z,1.37
2019-05-12T19:45:21.902Z,1.80
2019-05-12T19:47:53.396Z,1.33
2019-05-12T19:50:22.849Z,1.20
2019-05-12T19:52:53.529Z,1.70
2019-05-12T19:55:25.596Z,1.50
2019-05-12T19:57:55.802Z,1.10
2019-05-12T20:00:26.014Z,1.10
2019-05-12T20:02:55.883Z,1.77
2019-05-12T20:05:25.575Z,1.50
2019-05-12T20:07:55.266Z,2.33
2019-05-12T20:10:25.073Z,1.60
2019-05-12T20:12:57.076Z,1.67
2019-05-12T20:15:30.342Z,1.57
2019-05-12T20:17:57.552Z,1.47
2019-05-12T20:20:36.588Z,1.90
2019-05-12T20:22:58.622Z,1.17
2019-05-12T20:25:28.360Z,1.97
2019-05-12T20:28:05.876Z,1.27
2019-05-12T20:30:29.707Z,1.90
2019-05-12T20:32:59.385Z,1.77
2019-05-12T20:35:29.302Z,1.57
2019-05-12T20:37:59.061Z,1.70
2019-05-12T20:40:32.125Z,1.67
2019-05-12T20:43:08.591Z,2.13
2019-05-12T20:45:40.141Z,1.60
2019-05-12T20:48:04.144Z,1.80
2019-05-12T20:50:38.748Z,1.90
2019-05-12T20:53:05.329Z,1.37
2019-05-12T20:55:39.634Z,1.70
2019-05-12T20:58:06.604Z,1.77
2019-05-12T21:00:38.814Z,1.80
2019-05-12T21:03:07.748Z,1.37
2019-05-12T21:05:37.462Z,1.60
2019-05-12T21:08:12.039Z,1.40
2019-05-12T21:10:38.998Z,2.00
2019-05-12T21:13:09.056Z,1.50
2019-05-12T21:15:42.750Z,1.57
2019-05-12T21:18:11.028Z,1.97
2019-05-12T21:20:40.781Z,1.57
2019-05-12T21:23:19.543Z,1.67
2019-05-12T21:25:55.882Z,1.70
2019-05-12T21:28:23.911Z,2.20
2019-05-12T21:30:55.825Z,2.83
2019-05-12T21:33:25.276Z,1.83
2019-05-12T21:35:54.956Z,1.60
2019-05-12T21:38:29.382Z,1.80
2019-05-12T21:40:56.091Z,1.90
2019-05-12T21:43:25.862Z,1.63
2019-05-12T21:45:55.589Z,1.93
2019-05-12T21:48:28.654Z,1.63
2019-05-12T21:50:57.128Z,1.80
2019-05-12T21:53:26.782Z,1.73
2019-05-12T21:56:03.863Z,2.07
2019-05-12T21:58:27.864Z,1.73
2019-05-12T22:01:04.441Z,1.50
2019-05-12T22:03:33.515Z,1.57
2019-05-12T22:06:15.223Z,1.80
2019-05-12T22:08:34.562Z,2.00
2019-05-12T22:11:09.143Z,2.13
2019-05-12T22:13:35.976Z,2.17
2019-05-12T22:16:05.714Z,1.60
2019-05-12T22:18:35.456Z,3.00
2019-05-12T22:21:06.961Z,1.77
2019-05-12T22:23:36.828Z,1.80
2019-05-12T22:26:06.562Z,2.13
2019-05-12T22:28:40.441Z,2.27
2019-05-12T22:31:07.620Z,2.03
2019-05-12T22:33:40.389Z,1.53
2019-05-12T22:36:20.717Z,1.90
2019-05-12T22:38:40.628Z,2.10
2019-05-12T22:41:10.340Z,2.10
2019-05-12T22:43:42.746Z,1.50
2019-05-12T22:46:16.224Z,1.87
2019-05-12T22:48:45.133Z,1.90
2019-05-12T22:51:19.693Z,1.60
2019-05-12T22:53:45.717Z,2.00
2019-05-12T22:56:17.925Z,1.60
2019-05-12T22:58:46.849Z,1.97
2019-05-12T23:01:16.613Z,1.70
2019-05-12T23:03:51.703Z,1.80
2019-05-12T23:06:23.753Z,1.83
2019-05-12T23:08:50.181Z,1.77
2019-05-12T23:11:23.773Z,2.00
2019-05-12T23:13:53.307Z,1.93
2019-05-12T23:16:26.162Z,1.60
2019-05-12T23:18:54.544Z,1.93
2019-05-12T23:21:24.340Z,2.20
2019-05-12T23:23:57.234Z,1.70
2019-05-12T23:26:25.653Z,1.80
2019-05-12T23:28:55.324Z,1.90
2019-05-12T23:31:29.843Z,2.27
2019-05-12T23:33:56.585Z,2.00
2019-05-12T23:36:35.810Z,1.77
2019-05-12T23:39:00.372Z,2.17
2019-05-12T23:41:29.135Z,2.33
2019-05-12T23:43:58.800Z,2.30
2019-05-12T23:46:28.482Z,2.17
2019-05-12T23:48:58.201Z,1.83
2019-05-12T23:51:28.218Z,1.87
2019-05-12T23:53:57.911Z,1.83
2019-05-12T23:56:27.585Z,2.23
2019-05-12T23:58:57.745Z,1.90
